Terminal Aerodrome Forecast
Issued by NWS Charleston, WV

Current Version | Previous Version | Text Only | Print | Product List | Glossary Off
Versions: 1 2 3 4 5 6 7 8 9 10 11 12 13 14 15 16 17 18 19 20 21 22 23

000
FTUS41 KRLX 242000 AAA
TAFBKW
TAF AMD
KBKW 242009Z 2420/2518 12008KT P6SM SCT020 BKN025
     FM242100 13008KT P6SM SCT025 BKN035
     FM242200 12007KT P6SM SCT035
     FM250100 12005KT P6SM SKC=

USA.gov is the U.S. government's official web portal to all federal, state and local government web resources and services.